Time;durP1;ratioP1;P1;durP2;ratioP2;P2;SDS_P1;SDS_P2;PMS_P1;PMS_P2;Temp;Humidity;BMP_temperature;BMP_pressure;BME280_temperature;BME280_humidity;BME280_pressure;Samples;Min_cycle;Max_cycle;Signal;HPM_P1;HPM_P2
2023/07/01 00:01:24;;;;;;;;;;;;;;;18.13;54.66;100683.56;5055413;28;1383;-82
2023/07/01 00:03:49;;;;;;;;;;;;;;;18.14;55.33;100684.38;5057803;28;1160;-81
2023/07/01 00:06:14;;;;;;;;;;;;;;;18.11;54.90;100668.97;5056204;28;1112;-81
2023/07/01 00:08:41;;;;;;;;;;;;;;;18.08;55.10;100671.97;5063253;28;1095;-81
2023/07/01 00:11:07;;;;;;;;;;;;;;;18.07;54.74;100663.28;5053612;28;1336;-81
2023/07/01 00:13:32;;;;;;;;;;;;;;;18.07;54.46;100659.84;5060721;28;1185;-82
2023/07/01 00:15:58;;;;;;;;;;;;;;;18.07;54.64;100657.22;5051634;28;1917;-81
2023/07/01 00:18:23;;;;;;;;;;;;;;;18.05;54.65;100658.19;5055988;28;1075;-82
2023/07/01 00:20:49;;;;;;;;;;;;;;;18.05;54.77;100657.38;5055658;28;1467;-81
2023/07/01 00:23:14;;;;;;;;;;;;;;;18.05;54.94;100647.69;5059772;28;1029;-81
2023/07/01 00:25:39;;;;;;;;;;;;;;;18.04;54.81;100643.44;5063980;28;1035;-81
2023/07/01 00:28:05;;;;;;;;;;;;;;;18.05;54.92;100646.88;5062384;28;1077;-81
2023/07/01 00:30:30;;;;;;;;;;;;;;;18.04;54.47;100635.56;5055066;28;1515;-81
2023/07/01 00:32:55;;;;;;;;;;;;;;;18.03;54.68;100638.38;5053610;28;1543;-81
2023/07/01 00:35:20;;;;;;;;;;;;;;;18.04;54.72;100640.81;5060947;28;1957;-82
2023/07/01 00:37:45;;;;;;;;;;;;;;;18.04;54.73;100645.25;5059708;28;1111;-82
2023/07/01 00:40:11;;;;;;;;;;;;;;;18.03;54.42;100644.44;5066156;28;1093;-81
2023/07/01 00:42:36;;;;;;;;;;;;;;;18.02;54.66;100636.75;5059068;28;1288;-81
2023/07/01 00:45:01;;;;;;;;;;;;;;;18.00;54.32;100636.09;5058908;28;1573;-81
2023/07/01 00:47:26;;;;;;;;;;;;;;;17.99;54.62;100632.66;5060905;28;1148;-81
2023/07/01 00:49:52;;;;;;;;;;;;;;;17.98;54.73;100625.78;5051103;28;1076;-81
2023/07/01 00:52:17;;;;;;;;;;;;;;;17.98;54.82;100619.72;5058953;28;1277;-81
2023/07/01 00:54:43;;;;;;;;;;;;;;;17.97;54.73;100615.47;5057141;28;1013;-81
2023/07/01 00:57:08;;;;;;;;;;;;;;;17.98;54.78;100619.72;5058997;28;1910;-81
2023/07/01 00:59:34;;;;;;;;;;;;;;;17.98;54.84;100620.53;5050306;28;1551;-81
2023/07/01 01:02:22;;;;;;;;;;;;;;;17.95;55.27;100615.66;5059239;28;999;-81
2023/07/01 01:04:58;;;;;;;;;;;;;;;17.95;55.39;100609.56;5051399;28;1626;-81
2023/07/01 01:07:27;;;;;;;;;;;;;;;17.94;55.48;100608.75;5048600;28;1091;-81
2023/07/01 01:09:56;;;;;;;;;;;;;;;17.94;55.60;100603.50;5056896;28;1185;-81
2023/07/01 01:12:23;;;;;;;;;;;;;;;17.93;55.68;100601.88;5056344;28;1348;-81
2023/07/01 01:14:49;;;;;;;;;;;;;;;17.92;55.89;100600.25;5059235;28;1263;-81
2023/07/01 01:17:15;;;;;;;;;;;;;;;17.91;56.14;100603.88;5051245;28;1898;-81
2023/07/01 01:19:44;;;;;;;;;;;;;;;17.91;56.17;100593.38;5049879;28;1027;-81
2023/07/01 01:22:17;;;;;;;;;;;;;;;17.90;56.21;100591.75;5052710;28;1498;-82
2023/07/01 01:24:44;;;;;;;;;;;;;;;17.91;55.88;100587.31;5058401;28;1086;-81
2023/07/01 01:27:11;;;;;;;;;;;;;;;17.90;56.62;100586.50;5055242;28;1178;-81
2023/07/01 01:29:36;;;;;;;;;;;;;;;17.90;56.55;100586.50;5057571;28;1470;-81
2023/07/01 01:32:01;;;;;;;;;;;;;;;17.91;56.71;100576.84;5054381;28;1098;-81
2023/07/01 01:34:26;;;;;;;;;;;;;;;17.90;56.67;100569.97;5055349;28;1278;-81
2023/07/01 01:36:54;;;;;;;;;;;;;;;17.86;56.76;100564.25;5053949;28;1902;-81
2023/07/01 01:39:26;;;;;;;;;;;;;;;17.82;56.89;100562.97;5051271;28;1497;-81
2023/07/01 01:41:57;;;;;;;;;;;;;;;17.80;57.30;100554.47;5052318;28;1389;-81
2023/07/01 01:44:33;;;;;;;;;;;;;;;17.80;57.09;100549.22;5062478;28;1170;-81
2023/07/01 01:46:58;;;;;;;;;;;;;;;17.77;57.38;100546.94;5060291;28;978;-81
2023/07/01 01:49:24;;;;;;;;;;;;;;;17.77;57.49;100545.13;5058646;28;1267;-81
2023/07/01 01:51:50;;;;;;;;;;;;;;;17.77;57.40;100542.50;5058259;28;1254;-81
2023/07/01 01:54:16;;;;;;;;;;;;;;;17.75;58.39;100541.06;5061255;28;1170;-81
2023/07/01 01:56:41;;;;;;;;;;;;;;;17.74;58.11;100534.19;5056132;28;1914;-81
2023/07/01 01:59:09;;;;;;;;;;;;;;;17.75;58.23;100539.25;5061847;28;1367;-82
2023/07/01 02:01:38;;;;;;;;;;;;;;;17.76;58.25;100537.44;5052151;28;1111;-81
2023/07/01 02:04:04;;;;;;;;;;;;;;;17.73;58.38;100533.38;5050933;28;1220;-81
2023/07/01 02:06:29;;;;;;;;;;;;;;;17.75;58.76;100535.81;5056012;28;1231;-81
2023/07/01 02:08:54;;;;;;;;;;;;;;;17.73;59.36;100528.13;5054881;28;1197;-81
2023/07/01 02:11:20;;;;;;;;;;;;;;;17.69;58.60;100532.06;5056650;28;1793;-81
2023/07/01 02:13:45;;;;;;;;;;;;;;;17.65;59.96;100524.72;5051953;28;1393;-82
2023/07/01 02:16:10;;;;;;;;;;;;;;;17.59;61.94;100526.25;5055904;28;1898;-81
2023/07/01 02:18:35;;;;;;;;;;;;;;;17.51;61.06;100524.53;5061432;28;1271;-81
2023/07/01 02:21:01;;;;;;;;;;;;;;;17.47;64.02;100512.75;5058502;28;1253;-81
2023/07/01 02:23:26;;;;;;;;;;;;;;;17.41;62.73;100508.22;5048628;28;1493;-81
2023/07/01 02:25:51;;;;;;;;;;;;;;;17.38;62.58;100511.22;5064428;28;1272;-81
2023/07/01 02:28:16;;;;;;;;;;;;;;;17.34;64.37;100512.56;5055493;28;1335;-82
2023/07/01 02:30:41;;;;;;;;;;;;;;;17.37;64.40;100501.72;5052437;28;1281;-81
2023/07/01 02:33:06;;;;;;;;;;;;;;;17.32;64.32;100506.69;5057322;28;1293;-82
2023/07/01 02:35:32;;;;;;;;;;;;;;;17.33;64.67;100497.84;5063567;28;1959;-81
2023/07/01 02:37:57;;;;;;;;;;;;;;;17.31;64.97;100491.13;5057258;28;1125;-81
2023/07/01 02:40:22;;;;;;;;;;;;;;;17.28;66.88;100489.69;5054350;28;983;-81
2023/07/01 02:42:47;;;;;;;;;;;;;;;17.20;68.40;100479.25;5055260;28;1396;-81
2023/07/01 02:45:13;;;;;;;;;;;;;;;17.17;68.50;100475.19;5060040;28;1795;-81
2023/07/01 02:47:38;;;;;;;;;;;;;;;17.18;68.36;100476.00;5053053;28;1144;-81
2023/07/01 02:50:04;;;;;;;;;;;;;;;17.16;67.57;100467.50;5047104;28;1215;-81
2023/07/01 02:52:29;;;;;;;;;;;;;;;17.16;67.65;100467.50;5058958;28;1550;-81
2023/07/01 02:54:54;;;;;;;;;;;;;;;17.15;68.97;100473.75;5047316;28;1148;-81
2023/07/01 02:57:20;;;;;;;;;;;;;;;17.12;66.68;100472.28;5048008;28;1989;-82
2023/07/01 02:59:46;;;;;;;;;;;;;;;17.09;69.20;100466.56;5052707;28;1411;-81
2023/07/01 03:02:11;;;;;;;;;;;;;;;17.07;69.58;100463.31;5054749;28;1025;-81
2023/07/01 03:04:36;;;;;;;;;;;;;;;17.06;70.21;100461.69;5054368;28;1180;-81
2023/07/01 03:07:01;;;;;;;;;;;;;;;17.05;69.52;100460.88;5060260;28;1230;-81
2023/07/01 03:09:27;;;;;;;;;;;;;;;17.07;70.82;100469.38;5057186;28;1657;-81
2023/07/01 03:11:52;;;;;;;;;;;;;;;17.06;71.25;100466.94;5058358;28;1078;-81
2023/07/01 03:14:18;;;;;;;;;;;;;;;17.03;70.82;100472.50;5059104;28;1255;-81
2023/07/01 03:16:44;;;;;;;;;;;;;;;17.01;70.69;100469.25;5048612;28;1965;-81
2023/07/01 03:19:09;;;;;;;;;;;;;;;16.98;71.41;100471.25;5051347;28;1444;-81
2023/07/01 03:21:36;;;;;;;;;;;;;;;16.96;72.87;100461.91;5057608;28;1080;-81
2023/07/01 03:24:02;;;;;;;;;;;;;;;16.96;72.56;100457.50;5053868;28;997;-81
2023/07/01 03:26:27;;;;;;;;;;;;;;;16.94;72.57;100449.00;5056603;28;1219;-81
2023/07/01 03:28:53;;;;;;;;;;;;;;;16.96;72.41;100451.44;5049103;28;1222;-81
2023/07/01 03:31:19;;;;;;;;;;;;;;;16.95;72.82;100440.16;5056912;28;1217;-81
2023/07/01 03:33:44;;;;;;;;;;;;;;;16.93;72.49;100430.84;5050013;28;1502;-81
2023/07/01 03:36:09;;;;;;;;;;;;;;;16.92;73.05;100439.69;5054355;28;1968;-81
2023/07/01 03:38:34;;;;;;;;;;;;;;;16.90;74.32;100437.25;5058237;28;1135;-81
2023/07/01 03:41:00;;;;;;;;;;;;;;;16.89;72.73;100434.81;5059711;28;1035;-81
2023/07/01 03:43:25;;;;;;;;;;;;;;;16.86;73.26;100441.22;5051370;28;1355;-81
2023/07/01 03:45:50;;;;;;;;;;;;;;;16.85;74.24;100429.09;5054083;28;1343;-81
2023/07/01 03:48:15;;;;;;;;;;;;;;;16.82;74.38;100429.47;5059662;28;1730;-81
2023/07/01 03:50:40;;;;;;;;;;;;;;;16.82;74.87;100426.84;5052627;28;867;-81
2023/07/01 03:53:06;;;;;;;;;;;;;;;16.80;74.85;100420.94;5055198;28;1506;-81
2023/07/01 03:55:31;;;;;;;;;;;;;;;16.80;74.04;100426.19;5050933;28;1905;-81
2023/07/01 03:57:56;;;;;;;;;;;;;;;16.83;74.98;100420.59;5054151;28;1188;-81
2023/07/01 04:00:21;;;;;;;;;;;;;;;16.78;75.13;100412.44;5053157;28;1248;-81
2023/07/01 04:02:50;;;;;;;;;;;;;;;16.75;76.05;100418.06;5051225;28;1334;-81
2023/07/01 04:05:16;;;;;;;;;;;;;;;16.73;76.56;100414.78;5062392;28;1138;-81
2023/07/01 04:07:42;;;;;;;;;;;;;;;16.70;76.16;100412.50;5055345;28;1477;-81
2023/07/01 04:10:07;;;;;;;;;;;;;;;16.69;76.06;100408.25;5057143;28;1562;-81
2023/07/01 04:12:33;;;;;;;;;;;;;;;16.70;76.53;100410.72;5059798;28;1246;-81
2023/07/01 04:14:59;;;;;;;;;;;;;;;16.68;77.49;100410.03;5068233;28;1141;-81
2023/07/01 04:17:24;;;;;;;;;;;;;;;16.65;77.18;100401.72;5062266;28;1906;-81
2023/07/01 04:19:49;;;;;;;;;;;;;;;16.64;77.07;100405.34;5053797;28;1664;-81
2023/07/01 04:22:14;;;;;;;;;;;;;;;16.61;79.12;100400.44;5056857;28;1173;-81
2023/07/01 04:24:39;;;;;;;;;;;;;;;16.59;77.77;100397.19;5066979;28;1298;-81
2023/07/01 04:27:05;;;;;;;;;;;;;;;16.56;76.71;100395.72;5059893;28;1044;-81
2023/07/01 04:29:30;;;;;;;;;;;;;;;16.55;79.05;100391.47;5057128;28;1409;-81
2023/07/01 04:31:55;;;;;;;;;;;;;;;16.53;78.63;100392.66;5060402;28;1144;-81
2023/07/01 04:34:20;;;;;;;;;;;;;;;16.52;79.61;100386.59;5057387;28;1620;-81
2023/07/01 04:36:45;;;;;;;;;;;;;;;16.51;80.63;100373.66;5061702;28;1894;-81
2023/07/01 04:39:12;;;;;;;;;;;;;;;16.45;80.00;100376.00;5054064;28;1530;-81
2023/07/01 04:41:37;;;;;;;;;;;;;;;16.41;80.46;100379.16;5061197;28;1080;-81
2023/07/01 04:44:03;;;;;;;;;;;;;;;16.39;80.03;100371.44;5066961;28;1109;-81
2023/07/01 04:46:31;;;;;;;;;;;;;;;16.38;83.18;100385.53;5065042;28;1319;-81
2023/07/01 04:48:56;;;;;;;;;;;;;;;16.34;81.72;100389.47;5054016;28;1754;-81
2023/07/01 04:51:22;;;;;;;;;;;;;;;16.36;82.04;100382.28;5060233;28;1146;-81
2023/07/01 04:53:47;;;;;;;;;;;;;;;16.36;81.86;100377.06;5055063;28;1021;-81
2023/07/01 04:56:12;;;;;;;;;;;;;;;16.36;81.67;100377.06;5068940;28;1973;-81
2023/07/01 04:58:37;;;;;;;;;;;;;;;16.35;82.44;100380.66;5058142;28;1345;-81
2023/07/01 05:01:02;;;;;;;;;;;;;;;16.32;82.05;100375.75;5063198;28;1227;-81
2023/07/01 05:03:28;;;;;;;;;;;;;;;16.31;82.24;100383.78;5062325;28;1219;-81
2023/07/01 05:05:53;;;;;;;;;;;;;;;16.33;80.99;100381.81;5059623;28;1152;-81
2023/07/01 05:08:18;;;;;;;;;;;;;;;16.31;82.45;100382.00;5060021;28;1653;-81
2023/07/01 05:10:43;;;;;;;;;;;;;;;16.33;81.10;100377.38;5062558;28;1098;-81
2023/07/01 05:13:09;;;;;;;;;;;;;;;16.34;83.61;100379.00;5057874;28;1196;-81
2023/07/01 05:15:37;;;;;;;;;;;;;;;16.32;83.60;100375.75;5058857;28;1910;-81
2023/07/01 05:18:02;;;;;;;;;;;;;;;16.29;84.70;100368.28;5052650;28;1279;-81
2023/07/01 05:20:27;;;;;;;;;;;;;;;16.28;83.16;100368.44;5054432;28;1121;-81
2023/07/01 05:22:53;;;;;;;;;;;;;;;16.29;84.61;100370.88;5061187;28;1263;-81
2023/07/01 05:25:18;;;;;;;;;;;;;;;16.28;83.21;100369.25;5056294;28;1384;-81
2023/07/01 05:27:43;;;;;;;;;;;;;;;16.24;84.33;100365.34;5062074;28;1081;-81
2023/07/01 05:30:08;;;;;;;;;;;;;;;16.22;85.75;100363.88;5059608;28;1134;-81
2023/07/01 05:32:33;;;;;;;;;;;;;;;16.19;86.50;100368.50;5059213;28;1131;-81
2023/07/01 05:34:59;;;;;;;;;;;;;;;16.18;86.30;100363.44;5059681;28;1590;-81
2023/07/01 05:37:24;;;;;;;;;;;;;;;16.18;85.80;100355.59;5061685;28;1964;-81
2023/07/01 05:39:50;;;;;;;;;;;;;;;16.16;87.23;100347.06;5058018;28;953;-80
2023/07/01 05:42:15;;;;;;;;;;;;;;;16.14;86.37;100346.44;5063723;28;1066;-81
2023/07/01 05:44:40;;;;;;;;;;;;;;;16.12;86.11;100353.66;5056325;28;1508;-81
2023/07/01 05:47:05;;;;;;;;;;;;;;;16.11;87.09;100346.78;5059433;28;1156;-81
2023/07/01 05:49:30;;;;;;;;;;;;;;;16.11;87.21;100346.78;5060817;28;1008;-81
2023/07/01 05:51:56;;;;;;;;;;;;;;;16.11;86.91;100341.53;5054448;28;934;-81
2023/07/01 05:54:21;;;;;;;;;;;;;;;16.13;86.91;100347.44;5051924;28;1332;-81
2023/07/01 05:56:46;;;;;;;;;;;;;;;16.17;87.06;100340.84;5053851;28;1893;-81
2023/07/01 05:59:13;;;;;;;;;;;;;;;16.18;86.47;100348.53;5057278;28;1128;-81
2023/07/01 06:01:38;;;;;;;;;;;;;;;16.18;87.90;100337.28;5063922;28;1020;-81
2023/07/01 06:04:04;;;;;;;;;;;;;;;16.17;87.66;100340.84;5063712;28;1519;-81
2023/07/01 06:06:29;;;;;;;;;;;;;;;16.18;87.29;100342.50;5062376;28;1224;-81
2023/07/01 06:08:54;;;;;;;;;;;;;;;16.20;88.80;100330.06;5055857;28;1271;-81
2023/07/01 06:11:19;;;;;;;;;;;;;;;16.23;86.98;100334.09;5059294;28;1501;-81
2023/07/01 06:13:46;;;;;;;;;;;;;;;16.25;88.03;100334.78;5053974;28;1631;-81
2023/07/01 06:16:11;;;;;;;;;;;;;;;16.25;88.32;100332.97;5060215;28;1905;-81
2023/07/01 06:18:37;;;;;;;;;;;;;;;16.27;87.95;100330.97;5061769;28;1067;-81
2023/07/01 06:21:06;;;;;;;;;;;;;;;16.30;89.13;100333.25;5058385;28;1172;-81
2023/07/01 06:23:31;;;;;;;;;;;;;;;16.33;89.23;100329.47;5055995;28;1619;-81
2023/07/01 06:25:57;;;;;;;;;;;;;;;16.35;89.00;100338.78;5066335;28;1077;-81
2023/07/01 06:28:22;;;;;;;;;;;;;;;16.37;90.66;100334.19;5052247;28;1255;-80
2023/07/01 06:30:47;;;;;;;;;;;;;;;16.35;88.43;100328.31;5052310;28;2138;-81
2023/07/01 06:33:12;;;;;;;;;;;;;;;16.38;88.84;100340.22;5054512;28;1519;-80
2023/07/01 06:35:41;;;;;;;;;;;;;;;16.38;88.67;100332.38;5067427;28;1971;-81
2023/07/01 06:38:06;;;;;;;;;;;;;;;16.40;89.07;100331.22;5058230;28;1503;-81
2023/07/01 06:40:32;;;;;;;;;;;;;;;16.39;88.60;100329.56;5052745;28;1035;-81
2023/07/01 06:42:57;;;;;;;;;;;;;;;16.41;89.79;100332.84;5062290;28;1694;-81
2023/07/01 06:45:22;;;;;;;;;;;;;;;16.44;88.93;100327.25;5063386;28;1012;-81
2023/07/01 06:47:47;;;;;;;;;;;;;;;16.44;88.56;100332.47;5056184;28;1306;-81
2023/07/01 06:50:12;;;;;;;;;;;;;;;16.46;88.76;100325.28;5054438;28;1662;-81
2023/07/01 06:52:38;;;;;;;;;;;;;;;16.50;88.99;100324.94;5054298;28;1195;-81
2023/07/01 06:55:03;;;;;;;;;;;;;;;16.52;87.94;100333.44;5057890;28;1144;-82
2023/07/01 06:57:30;;;;;;;;;;;;;;;16.53;88.44;100321.97;5060486;28;1887;-81
2023/07/01 06:59:55;;;;;;;;;;;;;;;16.56;88.04;100318.97;5050821;28;1022;-82
2023/07/01 07:02:20;;;;;;;;;;;;;;;16.56;89.68;100321.59;5057941;28;1428;-81
2023/07/01 07:04:45;;;;;;;;;;;;;;;16.56;89.53;100318.97;5054031;28;1114;-82
2023/07/01 07:07:10;;;;;;;;;;;;;;;16.58;89.81;100311.78;5065976;28;1106;-82
2023/07/01 07:09:36;;;;;;;;;;;;;;;16.57;92.60;100323.22;5056419;28;1754;-81
2023/07/01 07:12:01;;;;;;;;;;;;;;;16.57;90.29;100320.59;5050784;28;1200;-81
2023/07/01 07:14:26;;;;;;;;;;;;;;;16.56;89.99;100318.97;5057200;28;1111;-81
2023/07/01 07:16:52;;;;;;;;;;;;;;;16.56;90.42;100317.19;5057103;28;1979;-81
2023/07/01 07:19:18;;;;;;;;;;;;;;;16.58;92.58;100315.22;5062134;28;1898;-81
2023/07/01 07:21:43;;;;;;;;;;;;;;;16.56;90.90;100311.13;5056071;28;998;-81
2023/07/01 07:24:08;;;;;;;;;;;;;;;16.56;93.82;100313.75;5057279;28;1137;-82
2023/07/01 07:26:33;;;;;;;;;;;;;;;16.53;93.92;100314.13;5055536;28;1568;-81
2023/07/01 07:28:59;;;;;;;;;;;;;;;16.53;92.73;100308.88;5057005;28;1490;-82
2023/07/01 07:31:24;;;;;;;;;;;;;;;16.56;91.67;100318.97;5058351;28;1154;-82
2023/07/01 07:33:49;;;;;;;;;;;;;;;16.58;92.97;100317.03;5059305;28;1328;-82
2023/07/01 07:36:14;;;;;;;;;;;;;;;16.57;92.56;100310.13;5056019;28;1898;-82
2023/07/01 07:38:39;;;;;;;;;;;;;;;16.58;92.07;100314.41;5052195;28;1623;-82
2023/07/01 07:41:05;;;;;;;;;;;;;;;16.57;92.63;100310.94;5053482;28;1195;-82
2023/07/01 07:43:30;;;;;;;;;;;;;;;16.53;91.16;100308.88;5050804;28;1036;-81
2023/07/01 07:45:55;;;;;;;;;;;;;;;16.55;91.08;100306.88;5058465;28;1690;-81
2023/07/01 07:48:20;;;;;;;;;;;;;;;16.55;92.02;100306.88;5055179;28;1300;-81
2023/07/01 07:50:46;;;;;;;;;;;;;;;16.58;93.68;100306.56;5056912;28;1703;-81
2023/07/01 07:53:13;;;;;;;;;;;;;;;16.62;92.88;100307.81;5068873;28;1191;-82
2023/07/01 07:55:39;;;;;;;;;;;;;;;16.62;93.48;100313.03;5059432;28;1902;-81
2023/07/01 07:58:04;;;;;;;;;;;;;;;16.64;92.38;100306.66;5055441;28;1228;-81
2023/07/01 08:00:29;;;;;;;;;;;;;;;16.66;94.01;100309.91;5065511;28;1081;-81
2023/07/01 08:02:54;;;;;;;;;;;;;;;16.68;94.54;100301.84;5047402;28;1537;-81
2023/07/01 08:05:21;;;;;;;;;;;;;;;16.69;94.84;100298.28;5059360;28;1797;-79
2023/07/01 08:07:47;;;;;;;;;;;;;;;16.71;94.14;100306.78;5060881;28;1021;-80
2023/07/01 08:10:12;;;;;;;;;;;;;;;16.76;94.71;100298.41;5057443;28;1159;-81
2023/07/01 08:12:37;;;;;;;;;;;;;;;16.79;94.49;100303.25;5058401;28;1520;-80
2023/07/01 08:15:03;;;;;;;;;;;;;;;16.82;94.07;100298.50;5060187;28;1180;-81
2023/07/01 08:17:28;;;;;;;;;;;;;;;16.85;94.08;100297.31;5054822;28;1973;-80
2023/07/01 08:19:53;;;;;;;;;;;;;;;16.86;94.10;100293.69;5057494;28;1156;-80
2023/07/01 08:22:18;;;;;;;;;;;;;;;16.88;95.12;100296.97;5061138;28;1501;-81
2023/07/01 08:24:44;;;;;;;;;;;;;;;16.92;95.58;100293.81;5055805;28;1155;-81
2023/07/01 08:27:09;;;;;;;;;;;;;;;16.92;95.57;100293.81;5063538;28;1102;-80
2023/07/01 08:29:34;;;;;;;;;;;;;;;16.98;96.15;100295.72;5060948;28;1485;-80
2023/07/01 08:32:00;;;;;;;;;;;;;;;17.01;96.06;100291.09;5060171;28;1216;-80
2023/07/01 08:34:25;;;;;;;;;;;;;;;16.99;95.11;100289.47;5059368;28;1148;-80
2023/07/01 08:36:50;;;;;;;;;;;;;;;17.01;94.78;100288.47;5055911;28;1906;-81
2023/07/01 08:39:16;;;;;;;;;;;;;;;16.98;95.42;100285.25;5060693;28;1506;-81
2023/07/01 08:41:45;;;;;;;;;;;;;;;16.98;95.08;100285.25;5055746;28;1544;-80
2023/07/01 08:44:11;;;;;;;;;;;;;;;16.99;95.91;100288.66;5062522;28;1301;-80
2023/07/01 08:46:39;;;;;;;;;;;;;;;16.99;95.08;100279.00;5056362;28;1430;-80
2023/07/01 08:49:04;;;;;;;;;;;;;;;17.02;95.93;100287.47;5055844;28;1475;-80
2023/07/01 08:51:35;;;;;;;;;;;;;;;17.04;96.52;100278.47;5062303;28;1149;-79
2023/07/01 08:54:00;;;;;;;;;;;;;;;17.08;96.87;100278.91;5065695;28;1077;-80
2023/07/01 08:56:25;;;;;;;;;;;;;;;17.09;95.13;100286.59;5057452;28;1902;-80
2023/07/01 08:58:51;;;;;;;;;;;;;;;17.12;95.97;100282.78;5054905;28;1588;-80
2023/07/01 09:01:17;;;;;;;;;;;;;;;17.16;97.25;100289.31;5050261;28;1507;-80
2023/07/01 09:03:42;;;;;;;;;;;;;;;17.17;97.76;100280.44;5052440;28;1244;-80
2023/07/01 09:06:07;;;;;;;;;;;;;;;17.18;97.66;100277.63;5060061;28;1083;-80
2023/07/01 09:08:34;;;;;;;;;;;;;;;17.22;97.55;100273.66;5051008;28;1202;-80
2023/07/01 09:10:59;;;;;;;;;;;;;;;17.28;95.82;100284.41;5055845;28;1586;-80
2023/07/01 09:13:26;;;;;;;;;;;;;;;17.29;96.82;100278.19;5050376;28;1096;-79
2023/07/01 09:15:51;;;;;;;;;;;;;;;17.30;98.17;100271.94;5058072;28;1906;-80
2023/07/01 09:18:20;;;;;;;;;;;;;;;17.30;97.81;100278.00;5056985;28;1561;-80
2023/07/01 09:20:45;;;;;;;;;;;;;;;17.33;96.91;100272.41;5065331;28;990;-80
2023/07/01 09:23:10;;;;;;;;;;;;;;;17.34;97.46;100276.63;5057485;28;1006;-80
2023/07/01 09:25:36;;;;;;;;;;;;;;;17.37;97.78;100265.78;5055455;28;1118;-80
2023/07/01 09:28:01;;;;;;;;;;;;;;;17.39;98.73;100274.28;5053949;28;1539;-79
2023/07/01 09:30:27;;;;;;;;;;;;;;;17.37;97.30;100270.19;5061364;28;1386;-80
2023/07/01 09:33:12;;;;;;;;;;;;;;;17.38;96.69;100271.84;5062308;28;1252;-80
2023/07/01 09:35:42;;;;;;;;;;;;;;;17.40;97.10;100265.41;5064450;28;1921;-80
2023/07/01 09:38:07;;;;;;;;;;;;;;;17.42;97.88;100273.09;5060209;28;1121;-80
2023/07/01 09:40:32;;;;;;;;;;;;;;;17.44;99.10;100266.69;5056889;28;1053;-80
2023/07/01 09:42:58;;;;;;;;;;;;;;;17.47;97.20;100261.06;5055641;28;1314;-80
2023/07/01 09:45:23;;;;;;;;;;;;;;;17.48;97.70;100262.69;5055539;28;1447;-80
2023/07/01 09:47:49;;;;;;;;;;;;;;;17.53;98.43;100264.75;5064751;28;1164;-80
2023/07/01 09:50:26;;;;;;;;;;;;;;;17.55;97.92;100257.53;5049885;28;1745;-80
2023/07/01 09:52:53;;;;;;;;;;;;;;;17.56;98.13;100247.84;5055947;28;1281;-80
2023/07/01 09:55:19;;;;;;;;;;;;;;;17.57;97.42;100254.72;5059745;28;1902;-80
2023/07/01 09:57:44;;;;;;;;;;;;;;;17.61;97.74;100256.00;5053885;28;1216;-80
2023/07/01 10:00:10;;;;;;;;;;;;;;;17.64;97.98;100245.13;5053982;28;1175;-80
2023/07/01 10:02:35;;;;;;;;;;;;;;;17.66;97.91;100256.22;5055003;28;1445;-81
2023/07/01 10:05:01;;;;;;;;;;;;;;;17.70;96.97;100255.66;5054341;28;1185;-81
2023/07/01 10:07:32;;;;;;;;;;;;;;;17.71;97.89;100246.81;5051370;28;1499;-80
2023/07/01 10:09:57;;;;;;;;;;;;;;;17.75;97.29;100252.53;5053595;28;1378;-73
2023/07/01 10:12:23;;;;;;;;;;;;;;;17.75;97.75;100247.28;5055210;28;1029;-73
2023/07/01 10:14:51;;;;;;;;;;;;;;;17.77;97.67;100246.09;5046583;28;1227;-73
2023/07/01 10:17:16;;;;;;;;;;;;;;;17.77;98.36;100242.66;5057568;28;1897;-73
2023/07/01 10:19:48;;;;;;;;;;;;;;;17.79;97.95;100248.53;5051929;28;1393;-73
2023/07/01 10:22:22;;;;;;;;;;;;;;;17.86;99.45;100249.41;5053501;28;1281;-73
2023/07/01 10:25:05;;;;;;;;;;;;;;;17.87;99.43;100245.78;5052818;28;1282;-73
2023/07/01 10:27:39;;;;;;;;;;;;;;;17.87;98.25;100245.78;5056509;28;1217;-73
2023/07/01 10:30:05;;;;;;;;;;;;;;;17.93;97.88;100244.22;5056590;28;1106;-73
2023/07/01 10:32:31;;;;;;;;;;;;;;;17.93;98.44;100245.03;5057312;28;1317;-73
2023/07/01 10:34:57;;;;;;;;;;;;;;;17.94;98.88;100236.16;5053069;28;1551;-73
2023/07/01 10:37:25;;;;;;;;;;;;;;;17.97;98.31;100241.06;5054792;28;1910;-73
2023/07/01 10:39:50;;;;;;;;;;;;;;;18.02;98.61;100238.69;5059691;28;1228;-73
2023/07/01 10:42:32;;;;;;;;;;;;;;;18.09;98.05;100230.06;5055670;28;1243;-73
2023/07/01 10:45:12;;;;;;;;;;;;;;;18.17;98.83;100235.16;5056228;28;1025;-73
2023/07/01 10:47:38;;;;;;;;;;;;;;;18.22;98.56;100236.22;5057513;28;977;-74
2023/07/01 10:50:07;;;;;;;;;;;;;;;18.29;98.81;100233.63;5055140;28;1022;-73
2023/07/01 10:52:52;;;;;;;;;;;;;;;18.34;98.39;100231.25;5052365;28;1601;-73
2023/07/01 10:55:36;;;;;;;;;;;;;;;18.41;98.56;100229.53;5059423;28;1296;-73
2023/07/01 10:58:21;;;;;;;;;;;;;;;18.48;98.90;100222.50;5050908;28;1494;-73
2023/07/01 11:00:50;;;;;;;;;;;;;;;18.60;98.65;100224.59;5061179;28;1091;-73
2023/07/01 11:03:34;;;;;;;;;;;;;;;18.67;97.60;100226.28;5042958;28;895;-73
2023/07/01 11:06:03;;;;;;;;;;;;;;;18.75;98.89;100225.31;5057741;28;1520;-73
2023/07/01 11:08:29;;;;;;;;;;;;;;;18.78;97.40;100232.81;5051823;28;1443;-73
2023/07/01 11:10:55;;;;;;;;;;;;;;;18.77;97.50;100231.19;5049670;28;2248;-73
2023/07/01 11:13:20;;;;;;;;;;;;;;;18.77;97.02;100232.00;5056845;28;1100;-73
2023/07/01 11:16:05;;;;;;;;;;;;;;;18.77;97.06;100225.94;5057454;28;1910;-73
2023/07/01 11:18:40;;;;;;;;;;;;;;;18.79;96.89;100223.94;5055491;28;1298;-73
2023/07/01 11:21:06;;;;;;;;;;;;;;;18.85;97.43;100225.78;5054460;28;1750;-73
2023/07/01 11:23:31;;;;;;;;;;;;;;;18.92;97.29;100229.25;5052876;28;1367;-73
2023/07/01 11:25:56;;;;;;;;;;;;;;;19.01;97.01;100228.09;5062344;28;1081;-73
2023/07/01 11:28:35;;;;;;;;;;;;;;;19.07;97.38;100232.56;5061649;28;1079;-73
2023/07/01 11:31:09;;;;;;;;;;;;;;;19.12;97.38;100228.56;5060933;28;1530;-73
2023/07/01 11:33:34;;;;;;;;;;;;;;;19.14;97.33;100231.78;5063842;28;1297;-73
2023/07/01 11:36:00;;;;;;;;;;;;;;;19.07;97.64;100234.38;5065009;28;1987;-73
2023/07/01 11:38:26;;;;;;;;;;;;;;;18.98;97.11;100244.25;5062047;28;1491;-73
2023/07/01 11:40:51;;;;;;;;;;;;;;;18.92;97.53;100239.75;5061107;28;1487;-73
2023/07/01 11:43:18;;;;;;;;;;;;;;;18.90;97.45;100239.16;5064613;28;1027;-73
2023/07/01 11:45:46;;;;;;;;;;;;;;;18.94;97.97;100244.84;5063115;28;997;-73
2023/07/01 11:48:11;;;;;;;;;;;;;;;18.96;98.14;100241.00;5062863;28;1470;-73
2023/07/01 11:50:49;;;;;;;;;;;;;;;18.96;99.34;100240.19;5060875;28;1001;-73
2023/07/01 11:53:14;;;;;;;;;;;;;;;18.98;99.78;100249.53;5056711;28;1083;-73
2023/07/01 11:55:39;;;;;;;;;;;;;;;19.04;99.58;100248.75;5055659;28;1993;-73
2023/07/01 11:58:04;;;;;;;;;;;;;;;19.08;99.27;100244.69;5060682;28;1524;-73
2023/07/01 12:00:30;;;;;;;;;;;;;;;19.10;100.00;100247.97;5052513;28;1267;-73
2023/07/01 12:02:55;;;;;;;;;;;;;;;19.14;99.35;100243.09;5051261;28;1332;-73
2023/07/01 12:05:20;;;;;;;;;;;;;;;19.14;99.67;100250.19;5051562;28;1420;-73
2023/07/01 12:07:55;;;;;;;;;;;;;;;19.16;99.47;100256.06;5054458;28;1208;-73
2023/07/01 12:10:21;;;;;;;;;;;;;;;19.21;99.39;100248.38;5060088;28;1426;-73
2023/07/01 12:12:46;;;;;;;;;;;;;;;19.17;99.24;100252.44;5055904;28;1376;-73
2023/07/01 12:15:11;;;;;;;;;;;;;;;19.21;99.25;100243.13;5059496;28;1795;-73
2023/07/01 12:17:37;;;;;;;;;;;;;;;19.21;99.14;100248.38;5058494;28;1937;-73
2023/07/01 12:20:04;;;;;;;;;;;;;;;19.20;99.47;100246.78;5056801;28;1316;-73
2023/07/01 12:22:29;;;;;;;;;;;;;;;19.23;99.44;100249.03;5064630;28;1425;-73
2023/07/01 12:24:56;;;;;;;;;;;;;;;19.25;99.41;100249.63;5063526;28;1021;-72
2023/07/01 12:27:21;;;;;;;;;;;;;;;19.27;99.31;100248.44;5065685;28;1063;-72
2023/07/01 12:29:46;;;;;;;;;;;;;;;19.32;99.14;100255.72;5060857;28;1096;-72
2023/07/01 12:32:11;;;;;;;;;;;;;;;19.35;99.15;100263.22;5056163;28;1679;-73
2023/07/01 12:34:36;;;;;;;;;;;;;;;19.39;99.24;100267.09;5054512;28;1099;-73
2023/07/01 12:37:02;;;;;;;;;;;;;;;19.36;99.42;100267.47;5068491;28;1902;-73
2023/07/01 12:39:28;;;;;;;;;;;;;;;19.35;100.00;100263.22;5060800;28;1155;-73
2023/07/01 12:41:58;;;;;;;;;;;;;;;19.38;99.03;100265.47;5059166;28;1456;-73
2023/07/01 12:44:23;;;;;;;;;;;;;;;19.30;99.58;100263.00;5063920;28;1109;-73